Time;durP1;ratioP1;P1;durP2;ratioP2;P2;SDS_P1;SDS_P2;PMS_P1;PMS_P2;Temp;Humidity;BMP_temperature;BMP_pressure;BME280_temperature;BME280_humidity;BME280_pressure;Samples;Min_cycle;Max_cycle;Signal;HPM_P1;HPM_P2
2021/01/19 00:01:01;;;;;;;22.85;13.68;;;13.00;2073.60;;;;;;4936967;29;20430;-69
2021/01/19 00:03:26;;;;;;;19.10;13.38;;;13.00;2073.60;;;;;;4932487;29;20035;-70
2021/01/19 00:05:52;;;;;;;21.38;13.60;;;13.10;2073.60;;;;;;4933403;29;20034;-70
2021/01/19 00:08:18;;;;;;;28.98;16.98;;;13.00;2099.20;;;;;;4936184;29;20051;-69
2021/01/19 00:10:43;;;;;;;28.50;17.63;;;13.00;2124.80;;;;;;4939091;29;20047;-70
2021/01/19 00:13:09;;;;;;;27.38;16.83;;;13.00;2099.20;;;;;;4932138;29;20440;-69
2021/01/19 00:15:35;;;;;;;24.08;14.93;;;13.00;2124.80;;;;;;4936867;29;20043;-72
2021/01/19 00:18:00;;;;;;;26.85;16.02;;;13.00;2124.80;;;;;;4936550;29;20099;-69
2021/01/19 00:20:26;;;;;;;26.35;15.73;;;13.00;2124.80;;;;;;4930818;29;20393;-70
2021/01/19 00:22:52;;;;;;;23.80;14.63;;;13.00;2124.80;;;;;;4936370;29;20038;-70
2021/01/19 00:25:17;;;;;;;29.98;17.58;;;13.00;2124.80;;;;;;4935949;29;20375;-71
2021/01/19 00:27:43;;;;;;;22.30;13.70;;;13.00;2124.80;;;;;;4936720;29;20370;-70
2021/01/19 00:30:09;;;;;;;24.52;16.15;;;13.10;2176.00;;;;;;4936459;29;20023;-70
2021/01/19 00:32:35;;;;;;;24.88;16.45;;;13.10;2201.60;;;;;;4938155;29;20032;-72
2021/01/19 00:35:00;;;;;;;23.15;14.82;;;13.20;2201.60;;;;;;4935250;29;20513;-70
2021/01/19 00:37:26;;;;;;;21.35;14.00;;;13.30;2201.60;;;;;;4936523;29;20058;-71
2021/01/19 00:39:52;;;;;;;24.00;14.70;;;13.30;2201.60;;;;;;4934641;29;20471;-71
2021/01/19 00:42:17;;;;;;;24.35;16.60;;;13.30;2201.60;;;;;;4936589;29;20083;-70
2021/01/19 00:44:44;;;;;;;23.75;15.82;;;13.30;2201.60;;;;;;4935628;29;20023;-70
2021/01/19 00:47:10;;;;;;;23.75;15.30;;;13.30;2201.60;;;;;;4935723;29;20055;-70
2021/01/19 00:49:35;;;;;;;23.13;15.52;;;13.20;2201.60;;;;;;4930119;29;20482;-70
2021/01/19 00:52:01;;;;;;;23.73;15.65;;;13.30;2201.60;;;;;;4934818;29;20481;-70
2021/01/19 00:54:27;;;;;;;24.50;16.70;;;13.30;2201.60;;;;;;4936451;29;20031;-71
2021/01/19 00:56:52;;;;;;;24.27;16.05;;;13.40;2201.60;;;;;;4933786;29;20460;-69
2021/01/19 00:59:18;;;;;;;25.80;16.48;;;13.30;2201.60;;;;;;4935878;29;20055;-70
2021/01/19 01:01:48;;;;;;;24.80;16.55;;;13.30;2201.60;;;;;;4936261;29;20047;-69
2021/01/19 01:04:14;;;;;;;28.27;17.58;;;13.30;2201.60;;;;;;4934020;29;20023;-70
2021/01/19 01:06:40;;;;;;;23.27;15.90;;;13.30;2201.60;;;;;;4931643;29;20549;-71
2021/01/19 01:09:06;;;;;;;21.95;15.10;;;13.30;2201.60;;;;;;4935260;28;20374;-70
2021/01/19 01:11:43;;;;;;;31.42;19.33;;;13.30;2201.60;;;;;;4932689;29;20030;-70
2021/01/19 01:14:10;;;;;;;26.67;16.80;;;13.30;2201.60;;;;;;4935069;29;20039;-70
2021/01/19 01:16:36;;;;;;;29.25;17.92;;;13.30;2201.60;;;;;;4929092;29;20028;-70
2021/01/19 01:19:03;;;;;;;31.77;19.83;;;13.30;2201.60;;;;;;4935231;29;20090;-69
2021/01/19 01:21:29;;;;;;;32.05;19.77;;;13.30;2201.60;;;;;;4934555;29;20067;-69
2021/01/19 01:23:55;;;;;;;31.02;19.33;;;13.20;2201.60;;;;;;4935342;29;20481;-70
2021/01/19 01:26:23;;;;;;;29.23;19.30;;;13.20;2201.60;;;;;;4941090;29;20035;-70
2021/01/19 01:28:48;;;;;;;24.65;17.25;;;13.20;2201.60;;;;;;4929642;29;20490;-70
2021/01/19 01:31:21;;;;;;;23.50;15.82;;;13.20;2201.60;;;;;;4934530;29;20163;-70
2021/01/19 01:33:48;;;;;;;23.73;15.70;;;13.20;2201.60;;;;;;4937950;29;20115;-71
2021/01/19 01:36:14;;;;;;;22.80;15.50;;;13.10;2201.60;;;;;;4935513;29;20023;-72
2021/01/19 01:38:40;;;;;;;23.67;16.13;;;13.10;2201.60;;;;;;4931249;29;20027;-71
2021/01/19 01:41:15;;;;;;;21.63;14.68;;;13.10;2201.60;;;;;;4932278;29;20816;-70
2021/01/19 01:43:41;;;;;;;25.20;16.02;;;13.10;2201.60;;;;;;4933417;29;20035;-70
2021/01/19 01:46:10;;;;;;;26.25;15.23;;;13.10;2201.60;;;;;;4933692;29;20028;-70
2021/01/19 01:48:37;;;;;;;22.67;14.50;;;13.10;2201.60;;;;;;4933859;29;20043;-70
2021/01/19 01:51:02;;;;;;;23.75;14.98;;;13.10;2201.60;;;;;;4932305;29;20035;-71
2021/01/19 01:53:28;;;;;;;21.05;13.98;;;13.10;2201.60;;;;;;4933744;29;20024;-70
2021/01/19 01:55:54;;;;;;;21.35;14.77;;;13.10;2201.60;;;;;;4935323;29;20031;-70
2021/01/19 01:58:20;;;;;;;25.13;15.48;;;13.10;2201.60;;;;;;4934308;29;20055;-70
2021/01/19 02:00:49;;;;;;;22.10;14.00;;;13.10;2201.60;;;;;;4934428;29;20047;-69
2021/01/19 02:03:15;;;;;;;27.48;17.27;;;13.00;2201.60;;;;;;4933990;29;20124;-74
2021/01/19 02:05:40;;;;;;;27.50;16.27;;;13.00;2201.60;;;;;;4944620;29;20027;-69
2021/01/19 02:08:25;;;;;;;23.00;14.98;;;13.00;2201.60;;;;;;4934566;29;20505;-70
2021/01/19 02:11:04;;;;;;;23.60;14.85;;;12.90;2201.60;;;;;;4933612;29;20020;-70
2021/01/19 02:13:38;;;;;;;23.73;15.38;;;12.90;2201.60;;;;;;4932289;29;20410;-70
2021/01/19 02:16:25;;;;;;;21.30;14.45;;;12.90;2201.60;;;;;;4930802;29;20028;-70
2021/01/19 02:19:04;;;;;;;27.45;16.88;;;12.90;2201.60;;;;;;4932879;29;20047;-70
2021/01/19 02:21:48;;;;;;;22.70;15.45;;;12.90;2201.60;;;;;;4934644;29;20035;-70
2021/01/19 02:24:36;;;;;;;22.02;15.10;;;12.90;2201.60;;;;;;4933297;29;20036;-71
2021/01/19 02:27:46;;;;;;;21.95;14.35;;;13.00;2201.60;;;;;;4934384;29;20035;-69
2021/01/19 02:30:25;;;;;;;36.00;20.70;;;13.00;2201.60;;;;;;4821162;29;20476;-71
2021/01/19 02:33:03;;;;;;;24.17;17.45;;;13.00;2201.60;;;;;;4821715;29;20533;-71
2021/01/19 02:35:39;;;;;;;24.20;16.10;;;13.10;2201.60;;;;;;4818934;29;20066;-70
2021/01/19 02:38:19;;;;;;;22.20;14.77;;;13.20;2201.60;;;;;;4821132;29;20046;-70
2021/01/19 02:40:47;;;;;;;23.95;15.73;;;13.30;2201.60;;;;;;4820614;29;20046;-69
2021/01/19 02:43:23;;;;;;;23.50;15.77;;;13.40;2201.60;;;;;;4819462;29;20031;-69
2021/01/19 02:45:50;;;;;;;22.50;15.48;;;13.40;2201.60;;;;;;4810121;29;20477;-70
2021/01/19 02:48:16;;;;;;;21.27;14.18;;;13.40;2201.60;;;;;;4819084;29;20561;-70
2021/01/19 02:50:43;;;;;;;30.33;18.38;;;13.30;2201.60;;;;;;4810438;29;20038;-71
2021/01/19 02:53:10;;;;;;;26.27;15.32;;;13.30;2201.60;;;;;;4819254;29;20042;-69
2021/01/19 02:55:37;;;;;;;26.77;16.63;;;13.30;2201.60;;;;;;4820257;29;20139;-69
2021/01/19 02:58:18;;;;;;;30.83;17.02;;;13.30;2201.60;;;;;;4810586;29;20038;-71
2021/01/19 03:00:47;;;;;;;25.55;16.17;;;13.30;2201.60;;;;;;4817557;29;20045;-70
2021/01/19 03:03:14;;;;;;;23.02;15.30;;;13.30;2201.60;;;;;;4818571;29;20050;-70
2021/01/19 03:05:41;;;;;;;24.13;15.25;;;13.30;2201.60;;;;;;4820666;29;20029;-69
2021/01/19 03:08:07;;;;;;;23.65;16.17;;;13.20;2201.60;;;;;;4921733;29;20056;-69
2021/01/19 03:10:41;;;;;;;23.75;15.10;;;13.30;2201.60;;;;;;4933476;29;20430;-70
2021/01/19 03:13:12;;;;;;;24.58;15.98;;;13.30;2201.60;;;;;;4916828;29;20032;-69
2021/01/19 03:15:39;;;;;;;29.27;16.15;;;13.20;2201.60;;;;;;4932657;29;20040;-70
2021/01/19 03:18:06;;;;;;;28.17;17.70;;;13.20;2201.60;;;;;;4933542;29;20143;-69
2021/01/19 03:20:32;;;;;;;24.27;15.63;;;13.10;2201.60;;;;;;4933426;29;20032;-69
2021/01/19 03:22:59;;;;;;;23.23;14.30;;;13.00;2201.60;;;;;;4933678;29;20030;-72
2021/01/19 03:25:25;;;;;;;20.55;13.90;;;13.00;2201.60;;;;;;4933419;29;20035;-70
2021/01/19 03:27:51;;;;;;;18.30;12.63;;;12.90;2201.60;;;;;;4934340;29;20039;-69
2021/01/19 03:30:17;;;;;;;19.52;13.57;;;12.90;2201.60;;;;;;4933123;29;20389;-70
2021/01/19 03:32:42;;;;;;;19.35;12.18;;;0.00;2201.60;;;;;;4934353;29;20032;-69
2021/01/19 03:35:09;;;;;;;18.52;12.18;;;0.00;2201.60;;;;;;4937746;29;20019;-70
2021/01/19 03:37:35;;;;;;;18.20;12.77;;;0.00;2201.60;;;;;;4936316;29;20035;-70
2021/01/19 03:40:03;;;;;;;19.90;13.52;;;0.00;2201.60;;;;;;4937556;29;20059;-70
2021/01/19 03:42:29;;;;;;;18.30;13.27;;;0.10;2201.60;;;;;;4937324;29;20553;-70
2021/01/19 03:44:54;;;;;;;19.50;13.52;;;0.10;2201.60;;;;;;4937201;29;20114;-70
2021/01/19 03:47:20;;;;;;;21.75;13.77;;;0.10;2201.60;;;;;;4933833;29;20501;-69
2021/01/19 03:49:45;;;;;;;19.70;12.45;;;0.10;2201.60;;;;;;4937037;29;20036;-70
2021/01/19 03:52:11;;;;;;;19.60;12.65;;;0.00;2201.60;;;;;;4936386;29;20016;-70
2021/01/19 03:54:37;;;;;;;19.48;12.32;;;0.00;2201.60;;;;;;4936683;29;20054;-70
2021/01/19 03:57:02;;;;;;;18.55;12.30;;;0.00;2201.60;;;;;;4937571;29;20032;-69
2021/01/19 03:59:28;;;;;;;19.02;12.23;;;0.00;2201.60;;;;;;4936784;29;20031;-70
2021/01/19 04:01:54;;;;;;;16.98;11.75;;;0.10;2201.60;;;;;;4934879;29;21779;-69
2021/01/19 04:04:19;;;;;;;18.02;12.25;;;0.10;2201.60;;;;;;4937796;29;20028;-72
2021/01/19 04:06:45;;;;;;;18.42;11.75;;;0.10;2201.60;;;;;;4937215;29;20034;-69
2021/01/19 04:09:11;;;;;;;17.73;12.25;;;0.10;2201.60;;;;;;4936245;29;20039;-69
2021/01/19 04:11:36;;;;;;;19.35;11.88;;;0.10;2201.60;;;;;;4935484;29;20070;-69
2021/01/19 04:14:02;;;;;;;17.80;11.73;;;0.10;2201.60;;;;;;4933549;29;20898;-69
2021/01/19 04:16:28;;;;;;;17.05;11.70;;;0.20;2201.60;;;;;;4938094;29;20034;-70
2021/01/19 04:18:53;;;;;;;17.55;12.40;;;0.20;2201.60;;;;;;4936870;29;20168;-69
2021/01/19 04:21:19;;;;;;;17.90;12.23;;;0.20;2201.60;;;;;;4940029;29;20033;-70
2021/01/19 04:23:45;;;;;;;18.45;12.55;;;0.20;2201.60;;;;;;4931949;29;20055;-70
2021/01/19 04:26:11;;;;;;;20.75;11.93;;;0.20;2201.60;;;;;;4938577;29;20024;-70
2021/01/19 04:28:36;;;;;;;16.65;11.10;;;0.20;2201.60;;;;;;4938954;29;20524;-71
2021/01/19 04:31:02;;;;;;;17.05;11.95;;;0.20;2201.60;;;;;;4936602;29;20023;-70
2021/01/19 04:33:28;;;;;;;17.67;11.77;;;0.20;2201.60;;;;;;4938192;29;20028;-70
2021/01/19 04:35:53;;;;;;;16.83;11.38;;;0.20;2201.60;;;;;;4938124;29;20770;-70
2021/01/19 04:38:19;;;;;;;18.45;11.95;;;0.20;2201.60;;;;;;4936488;29;20405;-70
2021/01/19 04:40:45;;;;;;;17.50;12.55;;;0.20;2201.60;;;;;;4933980;29;20429;-70
2021/01/19 04:43:12;;;;;;;16.67;12.63;;;0.30;2201.60;;;;;;4936594;28;20593;-69
2021/01/19 04:45:40;;;;;;;19.83;13.05;;;0.30;2201.60;;;;;;4936074;29;20059;-71
2021/01/19 04:48:07;;;;;;;14.52;11.23;;;0.30;2201.60;;;;;;4936507;29;20397;-69
2021/01/19 04:50:35;;;;;;;19.38;12.77;;;0.30;2201.60;;;;;;4934489;29;20023;-71
2021/01/19 04:53:02;;;;;;;17.38;11.52;;;0.30;2201.60;;;;;;4934953;29;20035;-69
2021/01/19 04:55:28;;;;;;;18.58;12.90;;;0.30;2201.60;;;;;;4935538;29;20024;-71
2021/01/19 04:58:05;;;;;;;20.27;13.05;;;0.50;2201.60;;;;;;4935945;29;20126;-71
2021/01/19 05:00:35;;;;;;;20.63;13.50;;;0.30;2201.60;;;;;;4934249;29;20055;-70
2021/01/19 05:03:22;;;;;;;20.83;13.52;;;0.30;2201.60;;;;;;4937235;29;20436;-68
2021/01/19 05:05:47;;;;;;;35.03;17.40;;;0.40;2201.60;;;;;;4916808;29;20084;-70
2021/01/19 05:08:16;;;;;;;30.23;17.50;;;0.40;2201.60;;;;;;4900461;29;20360;-70
2021/01/19 05:10:47;;;;;;;28.67;16.98;;;0.30;2201.60;;;;;;4900512;29;20134;-74
2021/01/19 05:13:15;;;;;;;21.45;14.30;;;0.40;2201.60;;;;;;4923708;29;20027;-76
2021/01/19 05:15:50;;;;;;;26.70;14.98;;;0.50;2201.60;;;;;;4917861;29;20031;-74
2021/01/19 05:18:27;;;;;;;23.63;14.65;;;25.70;2201.60;;;;;;4900201;29;20204;-72
2021/01/19 05:20:53;;;;;;;28.45;16.67;;;0.50;2201.60;;;;;;4894566;29;20862;-71
2021/01/19 05:23:23;;;;;;;22.10;14.20;;;0.50;2201.60;;;;;;4907749;29;20035;-71
2021/01/19 05:25:55;;;;;;;25.13;15.07;;;0.10;2201.60;;;;;;4918620;29;20552;-75
2021/01/19 05:28:35;;;;;;;19.50;13.85;;;0.50;2201.60;;;;;;4934387;28;20024;-70
2021/01/19 05:31:45;;;;;;;18.55;12.35;;;0.60;2201.60;;;;;;4932196;29;20105;-70
2021/01/19 05:34:12;;;;;;;21.20;14.20;;;0.50;2201.60;;;;;;4925298;28;20470;-74
2021/01/19 05:36:44;;;;;;;18.27;12.07;;;0.50;2201.60;;;;;;4918214;29;20028;-76
2021/01/19 05:39:13;;;;;;;18.98;12.65;;;0.50;2201.60;;;;;;4922373;29;20135;-72
2021/01/19 05:41:52;;;;;;;30.55;16.55;;;0.40;2201.60;;;;;;4899654;29;20588;-71
2021/01/19 05:44:25;;;;;;;19.75;12.77;;;0.50;2201.60;;;;;;4898239;29;20042;-72
2021/01/19 05:47:03;;;;;;;21.42;13.05;;;0.50;2201.60;;;;;;4907852;29;20118;-71
2021/01/19 05:49:32;;;;;;;34.75;18.50;;;0.50;2201.60;;;;;;4900397;29;20064;-70
2021/01/19 05:52:05;;;;;;;60.20;26.52;;;0.90;2201.60;;;;;;4914918;29;20004;-75
2021/01/19 05:54:37;;;;;;;35.53;18.70;;;0.60;2201.60;;;;;;4902621;29;20028;-71
2021/01/19 05:57:25;;;;;;;28.02;16.25;;;0.70;2201.60;;;;;;4899381;29;20134;-70
2021/01/19 05:59:56;;;;;;;31.40;18.02;;;0.70;2201.60;;;;;;4897184;29;20031;-69
2021/01/19 06:02:44;;;;;;;32.60;19.35;;;0.80;2201.60;;;;;;4897632;29;20083;-70
2021/01/19 06:05:15;;;;;;;31.73;18.75;;;0.70;2201.60;;;;;;4897395;29;20039;-70
2021/01/19 06:07:45;;;;;;;25.63;17.10;;;0.70;2201.60;;;;;;4897628;29;20047;-70
2021/01/19 06:10:16;;;;;;;33.53;18.75;;;0.70;2201.60;;;;;;4881123;29;20031;-70
2021/01/19 06:12:43;;;;;;;26.70;17.30;;;0.70;2201.60;;;;;;4896360;29;20412;-70
2021/01/19 06:15:09;;;;;;;28.92;18.30;;;0.70;2201.60;;;;;;4898055;29;20067;-70
2021/01/19 06:17:35;;;;;;;25.05;17.45;;;0.70;2201.60;;;;;;4897013;29;20055;-70
2021/01/19 06:20:04;;;;;;;20.88;14.68;;;0.80;2201.60;;;;;;4898012;29;20043;-70
2021/01/19 06:22:30;;;;;;;21.73;15.00;;;0.70;2201.60;;;;;;4898103;29;20560;-69
2021/01/19 06:25:00;;;;;;;37.97;13.80;;;0.90;2201.60;;;;;;4895658;29;20083;-69
2021/01/19 06:27:31;;;;;;;19.25;13.02;;;0.70;2201.60;;;;;;4897442;29;20030;-70
2021/01/19 06:29:59;;;;;;;17.13;12.40;;;0.70;2201.60;;;;;;4897138;29;20110;-70
2021/01/19 06:32:28;;;;;;;18.02;12.45;;;0.70;2201.60;;;;;;4897187;29;20038;-70
2021/01/19 06:34:54;;;;;;;19.42;13.13;;;0.70;2201.60;;;;;;4880318;29;20602;-70
2021/01/19 06:37:25;;;;;;;18.10;12.68;;;0.60;2201.60;;;;;;4898407;29;20532;-70
2021/01/19 06:39:55;;;;;;;21.90;14.43;;;0.70;2201.60;;;;;;4897592;29;20639;-70
2021/01/19 06:42:26;;;;;;;18.05;12.82;;;0.90;2201.60;;;;;;4897002;29;20107;-71
2021/01/19 06:44:59;;;;;;;23.55;16.17;;;0.80;2201.60;;;;;;4897727;29;20077;-70
2021/01/19 06:47:25;;;;;;;26.25;16.50;;;0.80;2201.60;;;;;;4894687;29;20039;-74
2021/01/19 06:49:53;;;;;;;38.15;21.45;;;25.60;2201.60;;;;;;4904275;29;20150;-69
2021/01/19 06:52:20;;;;;;;28.38;19.67;;;0.90;2201.60;;;;;;4897418;29;20039;-71
2021/01/19 06:54:52;;;;;;;73.45;43.45;;;25.60;2201.60;;;;;;4899820;29;20520;-69
2021/01/19 06:57:56;;;;;;;75.05;41.30;;;25.60;2201.60;;;;;;4905864;29;20134;-72
2021/01/19 07:00:23;;;;;;;100.00;58.75;;;25.70;2201.60;;;;;;4913847;29;20033;-73
2021/01/19 07:02:51;;;;;;;132.10;78.82;;;25.80;2201.60;;;;;;4880159;29;20459;-70
2021/01/19 07:05:22;;;;;;;98.00;71.40;;;25.90;2201.60;;;;;;4864747;29;20428;-72
2021/01/19 07:08:08;;;;;;;41.45;31.83;;;25.90;2176.00;;;;;;4873880;29;20609;-72
2021/01/19 07:11:02;;;;;;;31.35;25.83;;;26.00;2176.00;;;;;;4850926;29;20190;-70
2021/01/19 07:13:41;;;;;;;63.92;50.08;;;26.10;2201.60;;;;;;4847367;29;20032;-70
2021/01/19 07:16:07;;;;;;;56.45;43.45;;;26.10;2201.60;;;;;;4840287;29;20039;-70
2021/01/19 07:18:50;;;;;;;46.97;31.15;;;26.30;2176.00;;;;;;4840632;29;20573;-72
2021/01/19 07:21:18;;;;;;;39.40;23.77;;;26.40;2176.00;;;;;;4842794;29;20105;-70
2021/01/19 07:23:46;;;;;;;39.75;22.40;;;26.50;2150.40;;;;;;4841649;29;20053;-72
2021/01/19 07:26:18;;;;;;;40.22;22.65;;;51.20;2201.60;;;;;;4840896;29;20493;-72
2021/01/19 07:28:45;;;;;;;41.92;25.35;;;51.40;2176.00;;;;;;4842502;29;20123;-72
2021/01/19 07:31:12;;;;;;;42.38;25.88;;;51.60;2124.80;;;;;;4870982;29;20074;-73
2021/01/19 07:33:43;;;;;;;38.28;24.48;;;51.70;2099.20;;;;;;4900069;29;20650;-71
2021/01/19 07:36:19;;;;;;;34.63;22.52;;;52.00;2099.20;;;;;;4901077;29;20098;-71
2021/01/19 07:38:45;;;;;;;35.00;20.65;;;76.90;2048.00;;;;;;4894786;29;20035;-71
2021/01/19 07:41:11;;;;;;;35.15;20.20;;;77.20;2022.40;;;;;;4900725;29;20031;-71
2021/01/19 07:43:39;;;;;;;31.38;17.95;;;77.30;2048.00;;;;;;4900882;29;20133;-73
2021/01/19 07:46:05;;;;;;;31.10;18.63;;;77.50;1945.60;;;;;;4900889;29;20115;-72
2021/01/19 07:48:37;;;;;;;30.77;17.42;;;77.60;2022.40;;;;;;4881100;29;20162;-72
2021/01/19 07:51:13;;;;;;;25.58;15.43;;;102.60;1868.80;;;;;;4900256;29;20167;-80
2021/01/19 07:53:51;;;;;;;24.90;17.40;;;102.70;1894.40;;;;;;4896456;29;21659;-83
2021/01/19 07:56:29;;;;;;;31.38;17.77;;;102.70;1868.80;;;;;;4904599;29;20569;-77
2021/01/19 07:58:56;;;;;;;32.10;18.83;;;102.60;1894.40;;;;;;4899981;29;20046;-75
2021/01/19 08:01:29;;;;;;;26.63;16.45;;;102.60;1945.60;;;;;;4902801;29;20492;-77
2021/01/19 08:03:55;;;;;;;21.33;13.30;;;102.50;1894.40;;;;;;4898777;29;20189;-73
2021/01/19 08:06:31;;;;;;;23.38;12.90;;;77.70;1894.40;;;;;;4892791;29;20028;-73
2021/01/19 08:09:15;;;;;;;16.77;12.50;;;77.70;1996.80;;;;;;4897322;29;20509;-73
2021/01/19 08:11:42;;;;;;;;;;;102.40;1894.40;;;;;;4896985;29;20061;-78
2021/01/19 08:14:08;;;;;;;35.53;21.08;;;102.50;1868.80;;;;;;4900068;29;20428;-76
2021/01/19 08:16:38;;;;;;;34.25;21.95;;;102.90;1971.20;;;;;;4899040;29;20061;-79
2021/01/19 08:19:08;;;;;;;36.10;22.38;;;128.00;1868.80;;;;;;4899191;29;20855;-74
2021/01/19 08:21:49;;;;;;;37.13;22.67;;;128.40;1766.40;;;;;;4910946;29;20044;-73
2021/01/19 08:24:16;;;;;;;29.10;19.08;;;128.60;1792.00;;;;;;4900267;29;20184;-82
2021/01/19 08:26:44;;;;;;;29.08;17.10;;;128.80;1920.00;;;;;;4905951;29;20063;-78
2021/01/19 08:29:10;;;;;;;23.88;16.65;;;128.70;1792.00;;;;;;4883263;29;20054;-80
2021/01/19 08:31:36;;;;;;;30.38;18.02;;;128.60;1766.40;;;;;;4894404;29;20031;-78
2021/01/19 08:34:17;;;;;;;31.15;20.13;;;128.50;1740.80;;;;;;4897218;29;20142;-72
2021/01/19 08:36:48;;;;;;;52.50;28.98;;;128.50;1843.20;;;;;;4893962;29;20450;-71
2021/01/19 08:39:16;;;;;;;65.72;36.28;;;128.60;1920.00;;;;;;4897818;29;20477;-72
2021/01/19 08:41:46;;;;;;;62.25;37.17;;;128.70;1843.20;;;;;;4898352;29;20042;-72
2021/01/19 08:44:13;;;;;;;66.45;40.47;;;128.70;1868.80;;;;;;4896429;29;20035;-71
2021/01/19 08:46:39;;;;;;;30.92;19.45;;;128.70;1817.60;;;;;;4892489;29;20040;-71
2021/01/19 08:49:09;;;;;;;34.90;21.23;;;128.80;1868.80;;;;;;4896411;29;20646;-71
2021/01/19 08:51:36;;;;;;;30.92;19.30;;;128.90;1894.40;;;;;;4898452;29;20481;-71
2021/01/19 08:54:06;;;;;;;36.67;19.92;;;154.00;1868.80;;;;;;4901071;29;20031;-71
2021/01/19 08:56:32;;;;;;;35.67;23.00;;;128.70;1740.80;;;;;;4894611;29;20062;-71
2021/01/19 08:58:58;;;;;;;39.15;24.52;;;128.70;1766.40;;;;;;4898799;29;20040;-70
2021/01/19 09:01:26;;;;;;;40.55;25.52;;;128.80;1766.40;;;;;;4890841;29;20045;-72
2021/01/19 09:04:01;;;;;;;34.70;21.20;;;128.70;1868.80;;;;;;4896769;29;20039;-71
2021/01/19 09:06:27;;;;;;;36.38;18.92;;;128.80;1740.80;;;;;;4876585;29;20039;-71
2021/01/19 09:09:01;;;;;;;28.27;17.52;;;153.60;1868.80;;;;;;4898358;29;20053;-70
2021/01/19 09:11:32;;;;;;;24.88;15.65;;;128.90;1817.60;;;;;;4897555;29;20707;-76
2021/01/19 09:14:08;;;;;;;27.95;16.30;;;128.30;1868.80;;;;;;4897556;29;20071;-74
2021/01/19 09:16:35;;;;;;;26.90;17.08;;;128.90;1843.20;;;;;;4896166;29;20532;-74
2021/01/19 09:19:09;;;;;;;40.67;25.75;;;128.60;1868.80;;;;;;4895445;29;20608;-73
2021/01/19 09:21:39;;;;;;;38.80;26.80;;;128.80;1817.60;;;;;;4897973;29;20036;-75
2021/01/19 09:24:20;;;;;;;44.38;30.35;;;128.70;1868.80;;;;;;4893928;29;20609;-74
2021/01/19 09:27:01;;;;;;;46.75;29.55;;;128.60;1868.80;;;;;;4898396;29;20036;-69
2021/01/19 09:29:34;;;;;;;53.15;31.77;;;128.50;1945.60;;;;;;4898598;29;20150;-69
2021/01/19 09:32:01;;;;;;;50.75;30.38;;;128.30;1817.60;;;;;;4889482;29;20024;-78
2021/01/19 09:34:28;;;;;;;48.50;28.67;;;128.20;1971.20;;;;;;4899716;29;20143;-74
2021/01/19 09:36:55;;;;;;;47.25;27.48;;;103.10;1945.60;;;;;;4906543;29;20032;-77
2021/01/19 09:39:28;;;;;;;45.28;27.17;;;103.30;1843.20;;;;;;4881557;29;20035;-79
2021/01/19 09:41:56;;;;;;;54.28;31.55;;;103.30;1945.60;;;;;;4890267;29;20031;-72
2021/01/19 09:44:23;;;;;;;55.42;32.58;;;103.30;1971.20;;;;;;4897283;29;20043;-72
2021/01/19 09:46:54;;;;;;;84.28;44.28;;;103.20;1894.40;;;;;;4898544;29;20507;-71
2021/01/19 09:49:22;;;;;;;94.43;48.53;;;103.10;1920.00;;;;;;4902644;29;20051;-72
2021/01/19 09:51:48;;;;;;;77.22;43.67;;;103.00;1920.00;;;;;;4894607;29;20028;-72
2021/01/19 09:54:21;;;;;;;36.00;21.55;;;103.00;1920.00;;;;;;4898751;29;20066;-72
2021/01/19 09:56:55;;;;;;;43.33;24.67;;;103.00;1920.00;;;;;;4898100;29;20024;-73
2021/01/19 09:59:26;;;;;;;36.85;22.42;;;103.00;1945.60;;;;;;4896982;29;20510;-72
2021/01/19 10:01:58;;;;;;;36.70;23.10;;;102.90;1894.40;;;;;;4893687;29;20549;-72
2021/01/19 10:04:25;;;;;;;34.10;21.15;;;102.90;1894.40;;;;;;4896295;29;20142;-73
2021/01/19 10:07:04;;;;;;;27.73;17.48;;;102.80;1894.40;;;;;;4897011;29;20020;-74
2021/01/19 10:09:38;;;;;;;27.77;17.27;;;102.90;1894.40;;;;;;4895212;29;20576;-72
2021/01/19 10:12:18;;;;;;;23.77;15.73;;;102.90;1868.80;;;;;;4881215;29;20066;-71
2021/01/19 10:14:44;;;;;;;23.45;15.30;;;102.90;1920.00;;;;;;4895160;29;20040;-71
2021/01/19 10:17:09;;;;;;;30.55;20.52;;;103.00;1894.40;;;;;;4879826;29;20051;-73
2021/01/19 10:19:37;;;;;;;29.90;17.23;;;103.00;1894.40;;;;;;4899684;29;20138;-72
2021/01/19 10:22:04;;;;;;;42.38;27.23;;;103.00;1868.80;;;;;;4896393;29;20886;-73
2021/01/19 10:24:30;;;;;;;29.45;18.92;;;102.90;1920.00;;;;;;4901641;29;20180;-73
2021/01/19 10:27:02;;;;;;;22.45;13.23;;;103.10;1894.40;;;;;;4896863;29;20023;-72
2021/01/19 10:29:42;;;;;;;14.70;8.70;;;103.20;1894.40;;;;;;4901339;29;20048;-71
2021/01/19 10:32:13;;;;;;;16.25;9.40;;;103.30;1843.20;;;;;;4898420;29;20032;-73
2021/01/19 10:34:45;;;;;;;12.73;7.88;;;128.00;1894.40;;;;;;4899012;29;20176;-72
2021/01/19 10:37:11;;;;;;;9.98;6.88;;;128.20;1843.20;;;;;;4893473;29;20544;-72
2021/01/19 10:39:56;;;;;;;11.40;7.57;;;128.10;1868.80;;;;;;4898867;29;21538;-84
2021/01/19 10:42:27;;;;;;;10.80;7.35;;;128.20;1843.20;;;;;;4893977;29;20902;-72
2021/01/19 10:45:05;;;;;;;13.55;7.38;;;128.20;1894.40;;;;;;4897603;29;20046;-73
2021/01/19 10:47:42;;;;;;;15.75;7.18;;;128.30;1843.20;;;;;;4897025;29;20123;-75
2021/01/19 10:50:18;;;;;;;13.10;7.10;;;128.40;1817.60;;;;;;4899234;29;20047;-73
2021/01/19 10:52:53;;;;;;;7.78;5.20;;;128.50;1817.60;;;;;;4897533;29;20042;-83
2021/01/19 10:55:19;;;;;;;8.63;5.32;;;128.50;1817.60;;;;;;4897957;29;20828;-77
2021/01/19 10:57:46;;;;;;;12.57;6.70;;;128.50;1766.40;;;;;;4896099;29;20104;-74
2021/01/19 11:00:12;;;;;;;10.57;5.45;;;128.60;1792.00;;;;;;4895142;29;20066;-78
2021/01/19 11:02:38;;;;;;;18.48;7.80;;;128.60;1766.40;;;;;;4894719;29;20042;-81
2021/01/19 11:05:04;;;;;;;15.07;6.15;;;128.70;1766.40;;;;;;4898153;29;20122;-81
2021/01/19 11:07:30;;;;;;;11.18;4.97;;;179.20;1766.40;;;;;;4902997;29;20042;-75
2021/01/19 11:09:56;;;;;;;10.55;5.70;;;128.70;1740.80;;;;;;4896203;29;20159;-82
2021/01/19 11:12:22;;;;;;;18.17;7.88;;;128.80;1715.20;;;;;;4894924;29;20059;-83
2021/01/19 11:14:47;;;;;;;12.77;6.93;;;128.80;1792.00;;;;;;4900299;29;20472;-84
2021/01/19 11:17:13;;;;;;;14.77;7.63;;;128.90;1715.20;;;;;;4904493;29;20028;-78
2021/01/19 11:19:39;;;;;;;15.90;7.95;;;128.90;1740.80;;;;;;4900515;29;20087;-69
2021/01/19 11:22:08;;;;;;;15.88;7.57;;;153.60;1740.80;;;;;;4895606;29;20208;-70
2021/01/19 11:24:35;;;;;;;38.17;18.63;;;128.90;1715.20;;;;;;4897490;29;20032;-71
2021/01/19 11:27:00;;;;;;;31.52;16.33;;;153.80;2022.40;;;;;;4895164;29;20030;-71
2021/01/19 11:29:26;;;;;;;16.50;8.30;;;153.70;1843.20;;;;;;4902410;29;20431;-69
2021/01/19 11:31:52;;;;;;;42.30;17.23;;;153.70;1740.80;;;;;;4895035;29;20062;-68
2021/01/19 11:34:18;;;;;;;10.23;5.55;;;153.80;2124.80;;;;;;4893424;29;20802;-68
2021/01/19 11:36:43;;;;;;;15.30;6.28;;;153.80;1664.00;;;;;;4895593;29;20107;-68
2021/01/19 11:39:10;;;;;;;13.48;7.07;;;153.80;1792.00;;;;;;4895338;29;20201;-68
2021/01/19 11:41:37;;;;;;;16.65;7.50;;;153.80;1766.40;;;;;;4897629;29;20225;-67
2021/01/19 11:44:03;;;;;;;11.48;6.50;;;153.90;2022.40;;;;;;4892094;29;20106;-68
2021/01/19 11:46:30;;;;;;;11.60;7.72;;;153.80;1766.40;;;;;;4896701;29;20205;-68
2021/01/19 11:48:58;;;;;;;21.83;9.57;;;153.90;1766.40;;;;;;4893860;29;20046;-68
2021/01/19 11:51:32;;;;;;;29.50;10.20;;;154.00;2176.00;;;;;;4894178;29;20477;-84
2021/01/19 11:54:00;;;;;;;30.35;11.48;;;154.10;1996.80;;;;;;4897125;29;20240;-71
2021/01/19 11:56:41;;;;;;;19.77;7.45;;;153.70;2252.80;;;;;;4895796;29;20231;-77
2021/01/19 11:59:10;;;;;;;13.10;5.32;;;154.20;1843.20;;;;;;4898992;29;20098;-71
2021/01/19 12:01:36;;;;;;;16.15;7.25;;;154.10;1792.00;;;;;;4898002;29;20023;-70
2021/01/19 12:04:03;;;;;;;22.13;7.65;;;154.10;1843.20;;;;;;4899224;29;20126;-72
2021/01/19 12:06:36;;;;;;;17.00;7.00;;;154.10;1920.00;;;;;;4893819;29;20028;-71
2021/01/19 12:09:02;;;;;;;14.40;7.25;;;154.10;1792.00;;;;;;4898541;29;20086;-77
2021/01/19 12:11:28;;;;;;;17.77;7.82;;;154.10;1715.20;;;;;;4895420;29;20062;-80
2021/01/19 12:13:54;;;;;;;13.52;6.82;;;154.10;1689.60;;;;;;4895329;29;20063;-75
2021/01/19 12:16:22;;;;;;;16.27;7.70;;;154.00;1664.00;;;;;;4897598;29;21023;-79
2021/01/19 12:18:49;;;;;;;16.88;9.68;;;154.00;1740.80;;;;;;4898600;29;20074;-70
2021/01/19 12:21:15;;;;;;;18.40;8.50;;;154.50;1689.60;;;;;;4899141;29;20048;-72